Observations for BRESCIA MONTICHIA, Italy (LIPO)

LIPO 260450Z 09006KT CAVOK 23/17 Q1018  
LIPO 260350Z 06007KT CAVOK 23/17 Q1018  
LIPO 260250Z 07007KT CAVOK 24/17 Q1018  
LIPO 260150Z 07006KT CAVOK 23/17 Q1017  
LIPO 260050Z 07004KT CAVOK 23/18 Q1018  
LIPO 252350Z 03005KT CAVOK 23/18 Q1018  
LIPO 252250Z 05007KT CAVOK 26/17 Q1018  
LIPO 252150Z 07005KT CAVOK 26/18 Q1018  
LIPO 252050Z 08005KT CAVOK 26/18 Q1018  
LIPO 251950Z 04005KT CAVOK 26/18 Q1018  
LIPO 251850Z 07005KT CAVOK 27/17 Q1017  
LIPO 251750Z 11005KT CAVOK 28/16 Q1017  
LIPO 251650Z 13007KT CAVOK 30/17 Q1016  
LIPO 251550Z 14007KT CAVOK 31/17 Q1016  
LIPO 251450Z 16005KT CAVOK 31/16 Q1016  
LIPO 251350Z 17001KT CAVOK 31/17 Q1016  
LIPO 251250Z 27004KT CAVOK 30/18 Q1017  
LIPO 251150Z 29002KT CAVOK 29/18 Q1018  
LIPO 251050Z 20004KT CAVOK 28/18 Q1018  
LIPO 250950Z 25003KT CAVOK 27/18 Q1018  
LIPO 250850Z 16002KT CAVOK 26/18 Q1019  
LIPO 250750Z 26001KT CAVOK 24/18 Q1019  
LIPO 250650Z 26002KT CAVOK 23/18 Q1018  
LIPO 250550Z 06002KT CAVOK 21/18 Q1018  
LIPO 250450Z 07005KT 6000 NSC 20/18 Q1018